Time;durP1;ratioP1;P1;durP2;ratioP2;P2;SDS_P1;SDS_P2;PMS_P1;PMS_P2;Temp;Humidity;BMP_temperature;BMP_pressure;BME280_temperature;BME280_humidity;BME280_pressure;Samples;Min_cycle;Max_cycle;Signal;HPM_P1;HPM_P2
2023/03/03 00:01:14;;;;;;;9.57;5.53;;;;;;;0.20;72.13;100868.72;5067790;28;20664;-69
2023/03/03 00:03:40;;;;;;;12.20;6.30;;;;;;;0.22;72.53;100869.72;5064200;28;20198;-69
2023/03/03 00:06:10;;;;;;;13.50;5.50;;;;;;;0.19;72.54;100866.03;5067653;28;20251;-69
2023/03/03 00:08:37;;;;;;;9.93;5.53;;;;;;;0.15;73.19;100875.34;5062744;28;20208;-69
2023/03/03 00:11:05;;;;;;;11.60;5.00;;;;;;;0.17;73.11;100875.44;5059053;28;20530;-69
2023/03/03 00:13:43;;;;;;;10.30;5.80;;;;;;;0.16;73.35;100879.75;5062960;28;20544;-69
2023/03/03 00:16:20;;;;;;;12.27;7.43;;;;;;;0.13;73.86;100876.97;5064492;28;20197;-69
2023/03/03 00:18:47;;;;;;;12.53;6.27;;;;;;;0.05;73.92;100882.50;5062800;28;20284;-69
2023/03/03 00:21:30;;;;;;;14.30;6.77;;;;;;;0.04;74.02;100881.59;5060878;28;20252;-69
2023/03/03 00:24:20;;;;;;;13.93;6.40;;;;;;;0.03;74.20;100890.22;5060189;28;20231;-69
2023/03/03 00:26:54;;;;;;;14.90;7.30;;;;;;;0.02;74.69;100897.94;5063240;28;20196;-69
2023/03/03 00:29:43;;;;;;;13.03;6.47;;;;;;;0.14;74.67;100903.91;5052456;28;20205;-68
2023/03/03 00:32:19;;;;;;;15.10;7.80;;;;;;;0.06;74.88;100899.91;5060502;28;20214;-69
2023/03/03 00:34:46;;;;;;;17.30;8.10;;;;;;;0.04;75.12;100901.53;5062336;28;20304;-69
2023/03/03 00:37:28;;;;;;;11.97;6.50;;;;;;;0.27;74.85;100909.97;5063163;28;20618;-69
2023/03/03 00:40:01;;;;;;;12.07;6.43;;;;;;;0.20;74.80;100904.28;5062104;28;20224;-69
2023/03/03 00:42:27;;;;;;;12.70;6.47;;;;;;;0.07;74.55;100910.44;5058489;28;20284;-68
2023/03/03 00:44:58;;;;;;;9.60;5.37;;;;;;;0.04;75.63;100918.06;5060412;28;20226;-69
2023/03/03 00:47:37;;;;;;;12.67;6.00;;;;;;;0.04;75.41;100914.53;5061553;28;20441;-68
2023/03/03 00:50:10;;;;;;;15.63;6.83;;;;;;;-0.05;75.78;100922.66;5062033;28;20196;-68
2023/03/03 00:52:39;;;;;;;11.43;5.83;;;;;;;-0.17;76.58;100922.78;5063144;28;20331;-69
2023/03/03 00:55:07;;;;;;;12.30;6.13;;;;;;;-0.26;77.12;100923.88;5061952;28;20216;-68
2023/03/03 00:57:33;;;;;;;14.13;6.87;;;;;;;-0.29;77.96;100928.91;5062183;28;20234;-69
2023/03/03 00:59:59;;;;;;;12.57;6.47;;;;;;;-0.31;78.28;100918.38;5058769;28;20342;-69
2023/03/03 01:02:26;;;;;;;12.10;6.07;;;;;;;-0.38;78.54;100922.28;5060961;28;20297;-68
2023/03/03 01:04:55;;;;;;;11.07;6.17;;;;;;;-0.44;79.14;100918.38;5059075;28;20218;-69
2023/03/03 01:07:22;;;;;;;12.50;6.33;;;;;;;-0.50;80.06;100930.97;5063055;28;20208;-69
2023/03/03 01:09:48;;;;;;;13.07;6.63;;;;;;;-0.58;80.25;100926.97;5062522;28;20557;-69
2023/03/03 01:12:15;;;;;;;9.00;5.60;;;;;;;-0.69;80.55;100918.47;5061775;28;20220;-68
2023/03/03 01:14:41;;;;;;;12.53;6.47;;;;;;;-0.71;80.56;100918.38;5060804;28;20357;-68
2023/03/03 01:17:08;;;;;;;12.23;6.20;;;;;;;-0.73;81.02;100921.66;5063709;28;20225;-68
2023/03/03 01:19:34;;;;;;;11.30;5.93;;;;;;;-0.70;81.27;100920.19;5062353;28;20246;-69
2023/03/03 01:22:00;;;;;;;11.97;6.50;;;;;;;-0.70;81.53;100919.28;5063165;28;20200;-68
2023/03/03 01:24:27;;;;;;;11.73;6.30;;;;;;;-0.70;81.59;100920.19;5066624;28;20221;-68
2023/03/03 01:26:53;;;;;;;11.63;6.67;;;;;;;-0.74;81.90;100915.56;5061683;28;20202;-68
2023/03/03 01:29:19;;;;;;;11.60;6.37;;;;;;;-0.79;81.87;100910.88;5069050;28;20226;-69
2023/03/03 01:31:46;;;;;;;11.53;6.37;;;;;;;-0.77;82.24;100912.78;5062062;28;20215;-68
2023/03/03 01:34:12;;;;;;;14.37;6.63;;;;;;;-0.66;81.42;100916.06;5064974;28;20228;-68
2023/03/03 01:36:38;;;;;;;14.80;6.67;;;;;;;-0.71;81.44;100915.78;5060609;28;20217;-68
2023/03/03 01:39:04;;;;;;;12.10;6.87;;;;;;;-0.71;81.59;100912.28;5063808;28;20196;-68
2023/03/03 01:41:32;;;;;;;13.07;7.10;;;;;;;-0.80;82.09;100915.16;5063961;28;20218;-69
2023/03/03 01:43:59;;;;;;;16.13;8.47;;;;;;;-0.85;82.42;100915.63;5065533;28;20330;-69
2023/03/03 01:46:53;;;;;;;19.07;8.77;;;;;;;-0.92;82.72;100913.44;5063081;28;20685;-68
2023/03/03 01:49:32;;;;;;;16.00;7.80;;;;;;;-1.00;83.04;100907.72;5061548;28;20201;-68
2023/03/03 01:52:02;;;;;;;13.70;7.63;;;;;;;-1.03;83.36;100900.63;5063470;28;20225;-68
2023/03/03 01:54:34;;;;;;;14.83;7.40;;;;;;;-0.99;83.06;100904.31;5062555;28;20218;-69
2023/03/03 01:57:06;;;;;;;14.27;7.83;;;;;;;-1.00;83.57;100895.63;5064856;28;20216;-69
2023/03/03 01:59:39;;;;;;;15.83;7.87;;;;;;;-0.99;83.66;100905.22;5061568;28;20194;-68
2023/03/03 02:02:06;;;;;;;15.23;7.70;;;;;;;-1.01;83.42;100903.31;5069213;28;20305;-69
2023/03/03 02:04:34;;;;;;;14.70;7.93;;;;;;;-1.03;83.73;100911.00;5064306;28;20218;-68
2023/03/03 02:07:07;;;;;;;16.97;8.30;;;;;;;-1.07;84.19;100913.31;5063426;28;20559;-69
2023/03/03 02:09:45;;;;;;;16.63;8.43;;;;;;;-1.10;84.43;100910.50;5065498;28;20636;-69
2023/03/03 02:12:16;;;;;;;14.60;7.70;;;;;;;-1.12;84.72;100905.19;5062713;28;20305;-69
2023/03/03 02:14:43;;;;;;;15.30;8.10;;;;;;;-1.19;84.90;100905.59;5058007;28;20823;-68
2023/03/03 02:17:10;;;;;;;15.87;7.73;;;;;;;-1.24;85.20;100911.22;5068673;28;20423;-68
2023/03/03 02:19:56;;;;;;;15.33;7.60;;;;;;;-1.28;85.50;100905.84;5068882;28;20664;-69
2023/03/03 02:22:33;;;;;;;15.00;7.20;;;;;;;-1.07;85.52;100902.91;5060258;28;20223;-69
2023/03/03 02:25:05;;;;;;;16.00;7.37;;;;;;;-1.02;84.83;100909.31;5064223;28;20630;-68
2023/03/03 02:27:32;;;;;;;12.27;6.77;;;;;;;-1.12;84.65;100904.28;5063248;28;20202;-69
2023/03/03 02:30:09;;;;;;;12.63;6.90;;;;;;;-1.19;84.84;100904.69;5064054;28;20243;-69
2023/03/03 02:32:36;;;;;;;13.63;7.63;;;;;;;-1.30;84.80;100911.72;5069879;28;20292;-69
2023/03/03 02:35:27;;;;;;;14.73;7.03;;;;;;;-1.46;85.63;100904.59;5070552;28;20210;-68
2023/03/03 02:37:58;;;;;;;15.10;7.17;;;;;;;-1.44;86.82;100920.28;5063430;28;20206;-68
2023/03/03 02:40:32;;;;;;;15.47;7.03;;;;;;;-1.19;85.72;100912.47;5069291;28;20576;-68
2023/03/03 02:43:01;;;;;;;11.07;6.63;;;;;;;-1.22;85.25;100910.53;5071632;28;20282;-69
2023/03/03 02:45:28;;;;;;;14.57;6.50;;;;;;;-1.37;85.88;100909.50;5068221;28;20763;-69
2023/03/03 02:47:54;;;;;;;11.30;6.57;;;;;;;-1.52;86.44;100911.06;5068578;28;20201;-68
2023/03/03 02:50:20;;;;;;;14.07;6.60;;;;;;;-1.67;87.35;100905.66;5069655;28;20257;-68
2023/03/03 02:52:47;;;;;;;13.10;6.40;;;;;;;-1.71;88.60;100909.75;5070196;28;20237;-68
2023/03/03 02:55:13;;;;;;;15.10;6.90;;;;;;;-1.75;89.44;100907.75;5062831;28;20222;-68
2023/03/03 02:57:39;;;;;;;14.37;6.53;;;;;;;-1.69;89.84;100915.06;5071995;28;20206;-69
2023/03/03 03:00:06;;;;;;;13.43;6.50;;;;;;;-1.69;89.85;100918.56;5073494;28;20650;-68
2023/03/03 03:02:33;;;;;;;11.13;6.20;;;;;;;-1.68;90.29;100914.25;5066252;28;20650;-68
2023/03/03 03:04:59;;;;;;;13.37;6.60;;;;;;;-1.58;90.52;100909.84;5061343;28;23060;-67
2023/03/03 03:07:26;;;;;;;15.13;6.77;;;;;;;-1.62;89.93;100912.97;5064854;28;20194;-68
2023/03/03 03:09:53;;;;;;;10.57;6.00;;;;;;;-1.70;90.49;100908.97;5060379;28;20281;-68
2023/03/03 03:12:20;;;;;;;13.80;6.70;;;;;;;-1.75;91.33;100914.63;5063629;28;20724;-69
2023/03/03 03:14:47;;;;;;;15.73;7.40;;;;;;;-1.86;91.18;100911.28;5066936;28;20226;-68
2023/03/03 03:17:13;;;;;;;11.80;6.63;;;;;;;-1.91;91.44;100907.47;5059403;28;20209;-68
2023/03/03 03:19:40;;;;;;;12.27;6.57;;;;;;;-1.97;91.94;100909.63;5057879;28;20262;-69
2023/03/03 03:22:06;;;;;;;12.47;6.87;;;;;;;-2.03;92.41;100906.56;5078064;28;20236;-68
2023/03/03 03:24:32;;;;;;;10.97;5.63;;;;;;;-2.04;92.80;100905.66;5061871;28;20218;-68
2023/03/03 03:26:59;;;;;;;12.07;5.90;;;;;;;-2.04;93.13;100909.97;5062037;28;20696;-68
2023/03/03 03:29:28;;;;;;;11.70;5.90;;;;;;;-2.03;93.89;100916.94;5060957;28;20302;-68
2023/03/03 03:31:54;;;;;;;12.93;6.90;;;;;;;-2.00;93.64;100915.50;5059349;28;20210;-68
2023/03/03 03:34:21;;;;;;;13.67;6.70;;;;;;;-2.02;93.07;100922.25;5067694;28;20261;-69
2023/03/03 03:36:47;;;;;;;12.97;7.30;;;;;;;-2.06;93.07;100917.63;5062561;28;20194;-68
2023/03/03 03:39:13;;;;;;;12.90;6.80;;;;;;;-2.12;93.32;100911.09;5063108;28;20271;-68
2023/03/03 03:41:40;;;;;;;13.13;7.57;;;;;;;-2.14;93.43;100916.19;5060233;28;20245;-68
2023/03/03 03:44:06;;;;;;;14.50;7.43;;;;;;;-2.13;93.53;100909.31;5066034;28;20218;-68
2023/03/03 03:46:32;;;;;;;12.83;6.63;;;;;;;-2.21;93.65;100908.75;5062992;28;20198;-68
2023/03/03 03:48:59;;;;;;;12.77;7.03;;;;;;;-2.28;93.67;100911.72;5060126;28;20194;-68
2023/03/03 03:51:25;;;;;;;11.43;6.10;;;;;;;-2.34;94.16;100911.28;5060100;28;20696;-68
2023/03/03 03:53:51;;;;;;;14.37;6.87;;;;;;;-2.34;94.54;100925.13;5060911;28;20953;-68
2023/03/03 03:56:18;;;;;;;13.03;6.83;;;;;;;-2.35;95.35;100933.72;5061636;28;20195;-68
2023/03/03 03:58:44;;;;;;;14.07;6.87;;;;;;;-2.38;95.56;100936.09;5060179;28;20633;-68
2023/03/03 04:01:10;;;;;;;14.37;6.40;;;;;;;-2.37;95.89;100931.78;5064494;28;20198;-68
2023/03/03 04:03:37;;;;;;;11.40;6.20;;;;;;;-2.35;96.07;100935.41;5055329;28;20202;-68
2023/03/03 04:06:03;;;;;;;14.37;6.70;;;;;;;-2.34;96.11;100930.31;5062805;28;20285;-68
2023/03/03 04:08:29;;;;;;;12.83;7.50;;;;;;;-2.30;96.63;100940.13;5065682;28;20198;-68
2023/03/03 04:10:56;;;;;;;14.80;7.23;;;;;;;-2.27;96.97;100934.25;5064099;28;23633;-68
2023/03/03 04:13:22;;;;;;;12.63;7.13;;;;;;;-2.31;97.19;100929.66;5069232;28;20699;-69
2023/03/03 04:15:49;;;;;;;14.80;6.67;;;;;;;-2.29;97.28;100930.66;5060336;28;20713;-68
2023/03/03 04:18:15;;;;;;;12.70;6.43;;;;;;;-2.32;97.26;100931.34;5063712;28;21430;-68
2023/03/03 04:20:41;;;;;;;12.03;7.03;;;;;;;-2.30;98.11;100929.75;5063667;28;20198;-68
2023/03/03 04:23:08;;;;;;;13.80;5.93;;;;;;;-2.33;98.10;100932.13;5065421;28;20232;-68
2023/03/03 04:25:34;;;;;;;14.20;6.80;;;;;;;-2.19;97.96;100929.63;5063682;28;20218;-68
2023/03/03 04:28:01;;;;;;;13.10;6.70;;;;;;;-2.29;98.04;100930.66;5061932;28;20205;-68
2023/03/03 04:30:30;;;;;;;12.90;6.67;;;;;;;-2.33;98.61;100936.41;5063917;28;20206;-69
2023/03/03 04:32:56;;;;;;;16.10;7.63;;;;;;;-2.19;98.94;100940.91;5060826;28;20329;-68
2023/03/03 04:35:23;;;;;;;19.20;7.53;;;;;;;-2.28;98.83;100935.06;5064821;28;20804;-68
2023/03/03 04:37:49;;;;;;;12.57;7.00;;;;;;;-2.33;98.75;100947.69;5064020;28;20195;-68
2023/03/03 04:40:17;;;;;;;16.03;6.90;;;;;;;-2.34;98.96;100945.88;5063107;28;20206;-68
2023/03/03 04:42:43;;;;;;;12.63;6.57;;;;;;;-2.37;99.06;100949.94;5053409;28;20187;-69
2023/03/03 04:45:10;;;;;;;12.87;6.53;;;;;;;-2.43;99.31;100950.38;5060581;28;20230;-68
2023/03/03 04:47:36;;;;;;;13.33;6.73;;;;;;;-2.47;99.55;100944.84;5065413;28;20206;-68
2023/03/03 04:50:04;;;;;;;13.53;7.20;;;;;;;-2.53;100.00;100947.91;5062992;28;20281;-68
2023/03/03 04:52:30;;;;;;;15.67;7.67;;;;;;;-2.48;100.00;100950.81;5066777;28;20738;-68
2023/03/03 04:54:57;;;;;;;10.47;6.77;;;;;;;-2.52;100.00;100955.78;5066590;28;20229;-68
2023/03/03 04:57:23;;;;;;;13.50;6.57;;;;;;;-2.50;100.00;100948.13;5068499;28;20221;-68
2023/03/03 04:59:50;;;;;;;13.87;7.60;;;;;;;-2.44;100.00;100955.44;5070542;28;20202;-68
2023/03/03 05:02:16;;;;;;;15.97;8.03;;;;;;;-2.50;100.00;100955.91;5072284;28;20201;-68
2023/03/03 05:04:43;;;;;;;12.53;6.87;;;;;;;-2.50;100.00;100945.53;5065397;28;20221;-68
2023/03/03 05:07:09;;;;;;;15.47;7.50;;;;;;;-2.49;100.00;100943.84;5073944;28;20198;-68
2023/03/03 05:09:35;;;;;;;14.60;7.77;;;;;;;-2.49;100.00;100946.44;5073089;28;20202;-68
2023/03/03 05:12:02;;;;;;;11.33;6.70;;;;;;;-2.54;100.00;100940.91;5073709;28;20206;-68
2023/03/03 05:14:28;;;;;;;15.57;8.00;;;;;;;-2.58;100.00;100942.38;5081557;28;20275;-68
2023/03/03 05:16:55;;;;;;;16.37;8.30;;;;;;;-2.64;100.00;100944.53;5062712;28;20199;-68
2023/03/03 05:19:21;;;;;;;13.70;7.13;;;;;;;-2.62;100.00;100948.13;5065453;28;20247;-68
2023/03/03 05:21:47;;;;;;;16.97;7.50;;;;;;;-2.62;100.00;100949.81;5072696;28;20198;-68
2023/03/03 05:24:13;;;;;;;12.83;6.60;;;;;;;-2.68;100.00;100950.28;5078756;28;20261;-68
2023/03/03 05:26:40;;;;;;;14.73;7.93;;;;;;;-2.69;100.00;100958.84;5068126;28;20244;-69
2023/03/03 05:29:07;;;;;;;18.77;8.17;;;;;;;-2.57;100.00;100951.06;5073548;28;20197;-69
2023/03/03 05:31:34;;;;;;;15.27;8.67;;;;;;;-2.49;100.00;100960.28;5068497;28;20649;-68
2023/03/03 05:34:01;;;;;;;15.00;8.13;;;;;;;-2.46;100.00;100963.13;5069532;28;20487;-68
2023/03/03 05:36:27;;;;;;;17.97;8.13;;;;;;;-2.53;100.00;100969.53;5072445;28;20259;-68
2023/03/03 05:38:54;;;;;;;13.43;7.27;;;;;;;-2.61;100.00;100964.59;5062515;28;20666;-69
2023/03/03 05:41:20;;;;;;;14.47;7.33;;;;;;;-2.67;100.00;100962.44;5068743;28;20232;-68
2023/03/03 05:43:47;;;;;;;14.87;7.70;;;;;;;-2.70;100.00;100972.59;5065419;28;20468;-68
2023/03/03 05:46:13;;;;;;;17.07;9.03;;;;;;;-2.75;100.00;100960.06;5070868;28;20252;-68
2023/03/03 05:48:39;;;;;;;15.23;8.03;;;;;;;-2.77;100.00;100966.84;5064741;28;20616;-68
2023/03/03 05:51:06;;;;;;;15.23;7.73;;;;;;;-2.77;100.00;100972.00;5069576;28;20275;-68
2023/03/03 05:53:32;;;;;;;15.37;8.17;;;;;;;-2.79;100.00;100973.59;5065218;28;20217;-68
2023/03/03 05:55:59;;;;;;;19.27;8.57;;;;;;;-2.78;100.00;100983.16;5062453;28;20665;-68
2023/03/03 05:58:25;;;;;;;16.23;8.23;;;;;;;-2.80;100.00;100980.47;5074259;28;20198;-68
2023/03/03 06:00:51;;;;;;;15.10;7.87;;;;;;;-2.78;100.00;100981.47;5067719;28;20281;-68
2023/03/03 06:03:18;;;;;;;17.50;8.50;;;;;;;-2.76;100.00;100979.00;5069218;28;20326;-68
2023/03/03 06:05:44;;;;;;;20.80;8.73;;;;;;;-2.68;100.00;100991.75;5069598;28;20693;-68
2023/03/03 06:08:11;;;;;;;18.40;9.40;;;;;;;-2.43;100.00;100997.06;5067671;28;20197;-68
2023/03/03 06:10:37;;;;;;;18.73;8.67;;;;;;;-2.40;100.00;100998.97;5068389;28;20623;-68
2023/03/03 06:13:03;;;;;;;16.03;8.53;;;;;;;-2.45;100.00;100989.94;5071320;28;20214;-68
2023/03/03 06:15:30;;;;;;;15.03;8.13;;;;;;;-2.39;100.00;100990.44;5069042;28;20223;-68
2023/03/03 06:17:56;;;;;;;19.73;8.23;;;;;;;-2.42;100.00;100992.75;5065357;28;20747;-68
2023/03/03 06:20:22;;;;;;;16.27;8.40;;;;;;;-2.45;100.00;101010.69;5065016;28;20243;-68
2023/03/03 06:22:49;;;;;;;18.70;8.67;;;;;;;-2.46;100.00;101004.59;5065016;28;20191;-68
2023/03/03 06:25:15;;;;;;;17.13;8.63;;;;;;;-2.36;100.00;101003.63;5060672;28;20329;-68
2023/03/03 06:27:41;;;;;;;16.07;9.13;;;;;;;-2.34;100.00;101008.13;5062409;28;20284;-67
2023/03/03 06:30:08;;;;;;;17.80;9.00;;;;;;;-2.21;100.00;101007.34;5065038;28;20238;-67
2023/03/03 06:32:35;;;;;;;22.07;9.13;;;;;;;-2.13;100.00;101008.78;5062749;28;20306;-67
2023/03/03 06:35:01;;;;;;;16.87;8.20;;;;;;;-2.14;100.00;101014.78;5064858;28;20218;-67
2023/03/03 06:37:27;;;;;;;17.33;8.93;;;;;;;-2.13;100.00;101008.78;5065170;28;20661;-68
2023/03/03 06:39:54;;;;;;;17.67;8.63;;;;;;;-2.07;100.00;101023.91;5068752;28;20203;-68
2023/03/03 06:42:20;;;;;;;19.13;9.27;;;;;;;-1.98;100.00;101019.41;5057965;28;20252;-69
2023/03/03 06:44:46;;;;;;;17.17;9.07;;;;;;;-1.87;100.00;101025.38;5069539;28;20256;-70
2023/03/03 06:47:15;;;;;;;18.70;9.93;;;;;;;-1.71;100.00;101031.78;5071709;28;20209;-70
2023/03/03 06:49:42;;;;;;;23.03;10.37;;;;;;;-1.47;100.00;101027.44;5071417;28;20746;-70
2023/03/03 06:52:22;;;;;;;21.10;10.50;;;;;;;-1.38;99.79;101032.38;5069916;28;20252;-70
2023/03/03 06:54:57;;;;;;;17.07;9.33;;;;;;;-1.27;99.26;101028.84;5061660;28;20512;-71
2023/03/03 06:57:32;;;;;;;20.37;9.47;;;;;;;-1.23;98.01;101024.75;5062675;28;20202;-69
2023/03/03 07:00:13;;;;;;;20.80;9.40;;;;;;;-1.05;97.95;101049.47;5063726;28;20281;-70
2023/03/03 07:02:39;;;;;;;20.27;10.20;;;;;;;-0.87;95.67;101049.81;5052920;28;20187;-69
2023/03/03 07:05:12;;;;;;;19.70;9.47;;;;;;;-0.77;95.63;101057.47;5050930;28;20790;-70
2023/03/03 07:07:39;;;;;;;21.20;9.00;;;;;;;-0.68;95.40;101053.81;5056482;28;20595;-70
2023/03/03 07:10:17;;;;;;;19.20;9.03;;;;;;;-0.56;95.62;101065.84;5064387;28;20817;-70
2023/03/03 07:12:43;;;;;;;19.23;9.63;;;;;;;-0.35;95.23;101055.19;5059520;28;20418;-71
2023/03/03 07:15:35;;;;;;;22.27;10.73;;;;;;;-0.21;94.94;101063.03;5059868;28;20277;-70
2023/03/03 07:18:06;;;;;;;17.90;10.90;;;;;;;-0.19;94.13;101059.72;5057386;28;20627;-70
2023/03/03 07:20:38;;;;;;;24.70;13.03;;;;;;;-0.08;92.96;101076.94;5061784;28;20199;-70
2023/03/03 07:23:20;;;;;;;21.40;10.93;;;;;;;0.00;92.96;101080.09;5060317;28;20263;-70
2023/03/03 07:25:47;;;;;;;23.70;10.47;;;;;;;0.08;93.26;101077.97;5057357;28;20243;-70
2023/03/03 07:28:27;;;;;;;21.40;11.03;;;;;;;0.19;93.46;101071.75;5063838;28;20196;-70
2023/03/03 07:30:56;;;;;;;19.90;10.90;;;;;;;0.39;93.32;101066.13;5062658;28;20195;-70
2023/03/03 07:33:27;;;;;;;24.50;10.93;;;;;;;0.53;92.82;101074.84;5061876;28;20309;-67
2023/03/03 07:35:56;;;;;;;22.33;13.07;;;;;;;0.70;91.80;101071.59;5065236;28;20197;-68
2023/03/03 07:38:44;;;;;;;26.97;13.30;;;;;;;0.83;90.14;101083.72;5062662;28;20205;-68
2023/03/03 07:41:19;;;;;;;25.93;12.13;;;;;;;0.94;89.99;101095.72;5062722;28;20753;-68
2023/03/03 07:43:53;;;;;;;28.57;14.43;;;;;;;1.11;89.08;101099.38;5057355;28;20226;-68
2023/03/03 07:46:24;;;;;;;28.17;15.17;;;;;;;1.25;88.28;101096.84;5066167;28;20291;-69
2023/03/03 07:48:51;;;;;;;28.13;16.30;;;;;;;1.39;87.57;101100.28;5065253;28;20251;-68
2023/03/03 07:51:40;;;;;;;33.57;17.03;;;;;;;1.49;87.21;101104.34;5062606;28;20211;-69
2023/03/03 07:54:19;;;;;;;37.00;17.60;;;;;;;1.61;86.47;101107.72;5063847;28;20256;-70
2023/03/03 07:56:46;;;;;;;35.17;17.93;;;;;;;1.72;85.88;101109.25;5062007;28;20234;-69
2023/03/03 07:59:24;;;;;;;34.23;17.33;;;;;;;1.83;85.54;101113.41;5064114;28;20197;-69
2023/03/03 08:01:57;;;;;;;35.73;17.93;;;;;;;1.98;84.21;101107.28;5059093;28;20287;-68
2023/03/03 08:04:49;;;;;;;36.07;17.50;;;;;;;2.14;82.96;101115.22;5064092;28;20266;-69
2023/03/03 08:07:18;;;;;;;35.80;17.33;;;;;;;2.28;82.00;101114.31;5064233;28;20202;-69
2023/03/03 08:09:50;;;;;;;40.73;19.50;;;;;;;2.37;81.85;101108.69;5060525;28;20206;-68
2023/03/03 08:12:31;;;;;;;34.40;18.33;;;;;;;2.48;80.55;101118.97;5064934;28;20209;-68
2023/03/03 08:15:12;;;;;;;36.60;18.10;;;;;;;2.57;80.02;101122.91;5065886;28;20222;-69
2023/03/03 08:17:41;;;;;;;35.70;18.70;;;;;;;2.66;78.81;101136.50;5061914;28;20228;-69
2023/03/03 08:20:27;;;;;;;33.17;17.13;;;;;;;2.77;77.20;101133.69;5063419;28;20415;-68
2023/03/03 08:22:54;;;;;;;33.23;16.40;;;;;;;2.67;77.78;101125.25;5067527;28;20285;-69
2023/03/03 08:25:20;;;;;;;33.30;17.20;;;;;;;2.60;77.84;101125.72;5063270;28;20249;-69
2023/03/03 08:27:47;;;;;;;34.13;17.43;;;;;;;2.66;78.07;101123.44;5060918;28;20669;-69
2023/03/03 08:30:13;;;;;;;37.47;18.20;;;;;;;2.72;78.33;101126.41;5063802;28;20214;-69
2023/03/03 08:32:40;;;;;;;37.60;18.80;;;;;;;2.64;77.94;101132.91;5062705;28;20222;-70
2023/03/03 08:35:06;;;;;;;35.67;17.90;;;;;;;2.58;78.46;101140.41;5063849;28;20252;-69
2023/03/03 08:37:32;;;;;;;40.50;19.20;;;;;;;2.55;78.21;101142.84;5065576;28;20221;-69
2023/03/03 08:39:59;;;;;;;37.23;18.87;;;;;;;2.64;78.01;101130.28;5067578;28;20231;-69
2023/03/03 08:42:25;;;;;;;34.63;17.40;;;;;;;2.66;77.70;101120.81;5067029;28;20201;-70
2023/03/03 08:44:52;;;;;;;35.53;17.63;;;;;;;2.73;77.96;101126.47;5058877;28;20586;-68
2023/03/03 08:47:18;;;;;;;37.13;17.70;;;;;;;2.84;77.95;101137.56;5059610;28;20201;-68
2023/03/03 08:49:44;;;;;;;36.07;17.93;;;;;;;2.90;77.00;101137.91;5063002;28;20582;-70
2023/03/03 08:52:10;;;;;;;39.75;22.00;;;;;;;3.02;76.82;101124.59;5059642;28;20659;-68
2023/03/03 08:54:37;;;;;;;37.07;18.70;;;;;;;3.15;76.02;101137.53;5062082;28;20694;-68
2023/03/03 08:57:03;;;;;;;38.93;18.80;;;;;;;3.20;75.84;101133.44;5066783;28;20194;-69
2023/03/03 08:59:30;;;;;;;36.70;18.17;;;;;;;3.33;75.32;101130.69;5065860;28;20252;-69
2023/03/03 09:01:56;;;;;;;34.63;17.87;;;;;;;3.28;75.30;101137.41;5060786;28;20198;-69
2023/03/03 09:04:22;;;;;;;34.90;18.17;;;;;;;3.45;74.51;101139.19;5065218;28;20210;-69
2023/03/03 09:06:49;;;;;;;37.03;18.87;;;;;;;3.56;74.05;101152.84;5062159;28;20237;-68
2023/03/03 09:09:15;;;;;;;36.07;18.80;;;;;;;3.64;73.49;101153.28;5064139;28;20210;-68
2023/03/03 09:11:43;;;;;;;33.13;16.97;;;;;;;3.65;73.89;101142.91;5067712;28;20199;-68
2023/03/03 09:14:12;;;;;;;34.63;17.93;;;;;;;3.64;73.89;101148.97;5065491;28;20272;-69
2023/03/03 09:16:44;;;;;;;37.13;18.83;;;;;;;3.64;73.36;101141.09;5067325;28;20206;-68
2023/03/03 09:19:20;;;;;;;36.20;17.27;;;;;;;3.69;73.80;101157.06;5060660;28;20202;-68
2023/03/03 09:21:47;;;;;;;37.10;17.93;;;;;;;3.77;73.27;101146.16;5059816;28;20565;-69
2023/03/03 09:24:24;;;;;;;36.03;18.33;;;;;;;3.74;73.19;101139.84;5067231;28;20217;-69
2023/03/03 09:26:54;;;;;;;34.30;17.27;;;;;;;3.53;73.96;101142.22;5062744;28;20260;-70
2023/03/03 09:29:27;;;;;;;37.87;17.63;;;;;;;3.72;73.35;101158.13;5065028;28;20202;-69
2023/03/03 09:31:59;;;;;;;32.17;17.03;;;;;;;3.81;73.55;101149.84;5062368;28;20802;-68
2023/03/03 09:34:38;;;;;;;35.43;17.40;;;;;;;4.09;72.78;101157.41;5064262;28;20218;-69
2023/03/03 09:37:20;;;;;;;37.17;18.13;;;;;;;4.04;72.63;101166.78;5064116;28;20669;-69
2023/03/03 09:39:50;;;;;;;36.63;18.07;;;;;;;4.00;71.96;101170.03;5069056;28;20222;-70
2023/03/03 09:42:45;;;;;;;38.73;18.63;;;;;;;3.82;72.75;101158.59;5068002;28;20229;-69
2023/03/03 09:45:37;;;;;;;35.93;17.23;;;;;;;3.87;72.43;101164.97;5066473;28;20217;-69
2023/03/03 09:48:27;;;;;;;34.27;16.63;;;;;;;4.09;72.23;101163.56;5067810;28;20613;-68
2023/03/03 09:51:03;;;;;;;32.30;15.90;;;;;;;4.05;71.27;101166.84;5060064;28;20198;-67
2023/03/03 09:53:50;;;;;;;32.70;17.03;;;;;;;3.99;71.86;101173.47;5064357;28;20208;-68
2023/03/03 09:56:33;;;;;;;36.20;17.07;;;;;;;4.00;71.73;101178.81;5063573;28;20226;-68
2023/03/03 09:59:25;;;;;;;34.80;17.33;;;;;;;4.23;70.67;101172.13;5063105;28;20583;-67
2023/03/03 10:02:08;;;;;;;34.77;17.40;;;;;;;4.36;70.61;101169.28;5056813;28;20282;-67
2023/03/03 10:05:00;;;;;;;34.67;17.00;;;;;;;4.50;70.66;101166.47;5063836;28;20240;-67
2023/03/03 10:07:58;;;;;;;31.83;15.40;;;;;;;4.22;70.13;101172.94;5066294;28;20193;-67
2023/03/03 10:10:32;;;;;;;34.50;16.77;;;;;;;4.45;70.16;101174.13;5012055;28;20362;-67
2023/03/03 10:13:36;;;;;;;36.07;16.77;;;;;;;4.68;69.96;101178.78;5058344;28;20734;-67
2023/03/03 10:16:31;;;;;;;30.23;15.53;;;;;;;4.69;68.45;101175.31;5061901;28;20256;-68
2023/03/03 10:19:02;;;;;;;33.10;16.43;;;;;;;4.72;68.72;101172.84;5062622;28;20230;-67
2023/03/03 10:21:37;;;;;;;28.57;15.13;;;;;;;4.97;68.01;101177.59;5066321;28;20207;-68
2023/03/03 10:24:12;;;;;;;30.07;15.73;;;;;;;5.06;68.06;101179.75;5063465;28;20707;-67
2023/03/03 10:26:56;;;;;;;30.87;15.03;;;;;;;5.10;66.96;101179.06;5060026;28;20642;-67
2023/03/03 10:30:20;;;;;;;30.83;15.40;;;;;;;5.12;66.77;101181.75;5058608;28;20200;-67
2023/03/03 10:33:30;;;;;;;37.70;15.97;;;;;;;5.16;66.71;101178.44;5038510;28;20246;-68
2023/03/03 10:36:27;;;;;;;32.70;15.93;;;;;;;5.34;66.58;101177.63;5024016;28;20203;-68
2023/03/03 10:39:28;;;;;;;32.23;16.43;;;;;;;5.60;65.45;101173.56;5059476;28;20205;-68
2023/03/03 10:42:15;;;;;;;30.10;15.03;;;;;;;5.73;65.33;101177.66;5062268;28;20580;-67
2023/03/03 10:44:48;;;;;;;34.63;15.03;;;;;;;5.71;64.82;101178.41;5060249;28;20322;-68
2023/03/03 10:47:45;;;;;;;32.73;15.77;;;;;;;5.79;64.64;101177.03;5061747;28;20201;-68
2023/03/03 10:50:15;;;;;;;27.53;14.90;;;;;;;5.94;63.79;101167.22;5063798;28;20220;-69
2023/03/03 10:52:47;;;;;;;28.93;15.23;;;;;;;5.94;64.23;101183.00;5061557;28;20714;-68
2023/03/03 10:55:35;;;;;;;29.40;15.40;;;;;;;6.11;64.42;101184.66;5058403;28;20216;-68
2023/03/03 10:58:30;;;;;;;29.63;14.90;;;;;;;6.25;62.48;101183.50;5064104;28;20674;-69
2023/03/03 11:01:15;;;;;;;29.23;14.77;;;;;;;6.18;63.00;101186.72;5061167;28;20243;-68
2023/03/03 11:04:05;;;;;;;29.77;16.07;;;;;;;6.42;62.52;101197.41;5061443;28;20226;-68
2023/03/03 11:07:02;;;;;;;28.20;14.43;;;;;;;6.22;62.31;101187.75;5068327;28;20202;-68
2023/03/03 11:09:32;;;;;;;27.30;14.13;;;;;;;6.04;62.93;101185.22;5067924;28;20699;-69
2023/03/03 11:12:10;;;;;;;30.80;15.30;;;;;;;6.19;62.88;101177.09;5065779;28;20209;-69
2023/03/03 11:14:48;;;;;;;27.23;12.97;;;;;;;6.28;62.41;101182.75;5061768;28;20229;-68
2023/03/03 11:17:29;;;;;;;22.90;12.43;;;;;;;6.21;62.99;101178.06;5067065;28;20204;-68
2023/03/03 11:20:03;;;;;;;23.23;12.50;;;;;;;6.15;62.93;101180.44;5066077;28;20583;-68
2023/03/03 11:22:35;;;;;;;26.27;12.80;;;;;;;6.22;62.60;101175.50;5062958;28;20699;-67
2023/03/03 11:25:22;;;;;;;23.50;12.23;;;;;;;6.51;62.08;101178.47;5066034;28;20610;-68
2023/03/03 11:28:12;;;;;;;25.43;12.80;;;;;;;6.68;61.16;101166.91;5067906;28;20202;-68
2023/03/03 11:30:50;;;;;;;24.97;12.10;;;;;;;6.75;61.37;101163.69;5064541;28;20568;-68
2023/03/03 11:33:30;;;;;;;23.17;12.33;;;;;;;6.88;60.57;101165.13;5065427;28;20665;-68
2023/03/03 11:36:14;;;;;;;23.77;12.40;;;;;;;6.79;61.17;101159.44;5058391;28;20198;-67
2023/03/03 11:38:53;;;;;;;22.73;11.53;;;;;;;6.88;60.62;101149.31;5060965;28;20198;-68